sensor_id;sensor_type;location;lat;lon;timestamp;P1;durP1;ratioP1;P2;durP2;ratioP2
29906;SDS011;16776;50.958;10.994;2023-03-01T00:00:04;9.05;;;5.40;;
29906;SDS011;16776;50.958;10.994;2023-03-01T00:02:33;7.28;;;4.72;;
29906;SDS011;16776;50.958;10.994;2023-03-01T00:04:59;7.60;;;5.35;;
29906;SDS011;16776;50.958;10.994;2023-03-01T00:07:27;9.68;;;5.30;;
29906;SDS011;16776;50.958;10.994;2023-03-01T00:09:54;6.97;;;4.70;;
29906;SDS011;16776;50.958;10.994;2023-03-01T00:12:20;9.32;;;5.20;;
29906;SDS011;16776;50.958;10.994;2023-03-01T00:14:47;8.35;;;4.82;;
29906;SDS011;16776;50.958;10.994;2023-03-01T00:17:14;7.57;;;4.88;;
29906;SDS011;16776;50.958;10.994;2023-03-01T00:19:40;8.10;;;4.70;;
29906;SDS011;16776;50.958;10.994;2023-03-01T00:22:07;7.20;;;4.57;;
29906;SDS011;16776;50.958;10.994;2023-03-01T00:24:35;7.13;;;4.47;;
29906;SDS011;16776;50.958;10.994;2023-03-01T00:27:01;7.20;;;4.10;;
29906;SDS011;16776;50.958;10.994;2023-03-01T00:29:28;8.70;;;5.10;;
29906;SDS011;16776;50.958;10.994;2023-03-01T00:31:54;9.10;;;5.15;;
29906;SDS011;16776;50.958;10.994;2023-03-01T00:34:21;7.72;;;4.50;;
29906;SDS011;16776;50.958;10.994;2023-03-01T00:36:47;8.25;;;4.65;;
29906;SDS011;16776;50.958;10.994;2023-03-01T00:39:14;7.30;;;4.80;;
29906;SDS011;16776;50.958;10.994;2023-03-01T00:41:42;9.43;;;4.78;;
29906;SDS011;16776;50.958;10.994;2023-03-01T00:44:09;7.05;;;4.72;;
29906;SDS011;16776;50.958;10.994;2023-03-01T00:46:36;9.75;;;5.13;;
29906;SDS011;16776;50.958;10.994;2023-03-01T00:49:03;8.98;;;4.88;;
29906;SDS011;16776;50.958;10.994;2023-03-01T00:51:30;8.50;;;4.93;;
29906;SDS011;16776;50.958;10.994;2023-03-01T00:53:58;8.07;;;4.63;;
29906;SDS011;16776;50.958;10.994;2023-03-01T00:56:27;7.95;;;4.45;;
29906;SDS011;16776;50.958;10.994;2023-03-01T00:58:56;6.93;;;4.35;;
29906;SDS011;16776;50.958;10.994;2023-03-01T01:01:23;6.68;;;4.35;;
29906;SDS011;16776;50.958;10.994;2023-03-01T01:03:53;6.32;;;4.00;;
29906;SDS011;16776;50.958;10.994;2023-03-01T01:06:21;8.30;;;4.88;;
29906;SDS011;16776;50.958;10.994;2023-03-01T01:08:50;6.53;;;5.20;;
29906;SDS011;16776;50.958;10.994;2023-03-01T01:11:18;6.95;;;4.32;;
29906;SDS011;16776;50.958;10.994;2023-03-01T01:13:46;7.63;;;4.65;;
29906;SDS011;16776;50.958;10.994;2023-03-01T01:16:15;7.55;;;4.88;;
29906;SDS011;16776;50.958;10.994;2023-03-01T01:18:44;8.32;;;4.90;;
29906;SDS011;16776;50.958;10.994;2023-03-01T01:21:12;7.20;;;4.45;;
29906;SDS011;16776;50.958;10.994;2023-03-01T01:23:41;7.13;;;4.28;;
29906;SDS011;16776;50.958;10.994;2023-03-01T01:26:09;9.70;;;4.90;;
29906;SDS011;16776;50.958;10.994;2023-03-01T01:28:38;6.88;;;4.30;;
29906;SDS011;16776;50.958;10.994;2023-03-01T01:31:04;8.68;;;4.85;;
29906;SDS011;16776;50.958;10.994;2023-03-01T01:33:33;6.78;;;4.22;;
29906;SDS011;16776;50.958;10.994;2023-03-01T01:36:00;6.22;;;4.22;;
29906;SDS011;16776;50.958;10.994;2023-03-01T01:38:27;6.97;;;4.40;;
29906;SDS011;16776;50.958;10.994;2023-03-01T01:40:53;7.75;;;4.68;;
29906;SDS011;16776;50.958;10.994;2023-03-01T01:43:20;9.18;;;5.03;;
29906;SDS011;16776;50.958;10.994;2023-03-01T01:45:50;6.70;;;4.35;;
29906;SDS011;16776;50.958;10.994;2023-03-01T01:48:18;5.28;;;4.18;;
29906;SDS011;16776;50.958;10.994;2023-03-01T01:50:49;6.00;;;3.95;;
29906;SDS011;16776;50.958;10.994;2023-03-01T01:53:21;6.97;;;4.45;;
29906;SDS011;16776;50.958;10.994;2023-03-01T01:55:48;10.02;;;4.55;;
29906;SDS011;16776;50.958;10.994;2023-03-01T01:58:19;7.38;;;4.75;;
29906;SDS011;16776;50.958;10.994;2023-03-01T02:00:47;6.65;;;3.80;;
29906;SDS011;16776;50.958;10.994;2023-03-01T02:03:17;9.70;;;4.80;;
29906;SDS011;16776;50.958;10.994;2023-03-01T02:05:47;6.50;;;4.40;;
29906;SDS011;16776;50.958;10.994;2023-03-01T02:08:23;6.65;;;5.13;;
29906;SDS011;16776;50.958;10.994;2023-03-01T02:10:52;9.32;;;5.07;;
29906;SDS011;16776;50.958;10.994;2023-03-01T02:13:21;8.70;;;5.00;;
29906;SDS011;16776;50.958;10.994;2023-03-01T02:15:48;10.07;;;5.07;;
29906;SDS011;16776;50.958;10.994;2023-03-01T02:18:16;7.72;;;4.35;;
29906;SDS011;16776;50.958;10.994;2023-03-01T02:20:48;8.98;;;4.80;;
29906;SDS011;16776;50.958;10.994;2023-03-01T02:23:24;10.15;;;4.93;;
29906;SDS011;16776;50.958;10.994;2023-03-01T02:25:53;6.82;;;4.28;;
29906;SDS011;16776;50.958;10.994;2023-03-01T02:30:55;7.40;;;4.93;;
29906;SDS011;16776;50.958;10.994;2023-03-01T02:33:39;9.00;;;4.93;;
29906;SDS011;16776;50.958;10.994;2023-03-01T02:36:08;7.38;;;5.30;;
29906;SDS011;16776;50.958;10.994;2023-03-01T02:38:38;7.93;;;4.63;;
29906;SDS011;16776;50.958;10.994;2023-03-01T02:41:05;6.57;;;4.60;;
29906;SDS011;16776;50.958;10.994;2023-03-01T02:43:35;7.30;;;4.65;;
29906;SDS011;16776;50.958;10.994;2023-03-01T02:46:06;8.18;;;4.22;;
29906;SDS011;16776;50.958;10.994;2023-03-01T02:48:41;8.55;;;4.35;;
29906;SDS011;16776;50.958;10.994;2023-03-01T02:51:10;6.90;;;4.18;;
29906;SDS011;16776;50.958;10.994;2023-03-01T02:53:48;8.25;;;5.18;;
29906;SDS011;16776;50.958;10.994;2023-03-01T02:56:25;10.18;;;5.05;;
29906;SDS011;16776;50.958;10.994;2023-03-01T02:58:53;10.35;;;5.85;;
29906;SDS011;16776;50.958;10.994;2023-03-01T03:01:20;9.23;;;5.00;;
29906;SDS011;16776;50.958;10.994;2023-03-01T03:03:47;8.00;;;4.78;;
29906;SDS011;16776;50.958;10.994;2023-03-01T03:06:13;12.02;;;5.70;;
29906;SDS011;16776;50.958;10.994;2023-03-01T03:08:40;9.07;;;5.30;;
29906;SDS011;16776;50.958;10.994;2023-03-01T03:11:06;6.80;;;4.78;;
29906;SDS011;16776;50.958;10.994;2023-03-01T03:13:33;9.65;;;5.07;;
29906;SDS011;16776;50.958;10.994;2023-03-01T03:16:01;10.50;;;5.43;;
29906;SDS011;16776;50.958;10.994;2023-03-01T03:18:28;8.05;;;4.80;;
29906;SDS011;16776;50.958;10.994;2023-03-01T03:20:55;9.40;;;5.38;;
29906;SDS011;16776;50.958;10.994;2023-03-01T03:23:22;9.90;;;5.68;;
29906;SDS011;16776;50.958;10.994;2023-03-01T03:25:49;8.45;;;4.78;;
29906;SDS011;16776;50.958;10.994;2023-03-01T03:28:16;8.40;;;5.20;;
29906;SDS011;16776;50.958;10.994;2023-03-01T03:30:43;8.98;;;5.07;;
29906;SDS011;16776;50.958;10.994;2023-03-01T03:33:11;8.77;;;5.30;;
29906;SDS011;16776;50.958;10.994;2023-03-01T03:35:40;8.20;;;5.28;;
29906;SDS011;16776;50.958;10.994;2023-03-01T03:38:09;9.05;;;5.22;;
29906;SDS011;16776;50.958;10.994;2023-03-01T03:40:42;10.50;;;5.40;;
29906;SDS011;16776;50.958;10.994;2023-03-01T03:43:10;9.80;;;5.00;;
29906;SDS011;16776;50.958;10.994;2023-03-01T03:45:38;8.32;;;4.50;;
29906;SDS011;16776;50.958;10.994;2023-03-01T03:48:06;8.75;;;5.03;;
29906;SDS011;16776;50.958;10.994;2023-03-01T03:50:36;6.85;;;4.88;;
29906;SDS011;16776;50.958;10.994;2023-03-01T03:53:04;8.75;;;4.75;;
29906;SDS011;16776;50.958;10.994;2023-03-01T03:55:32;8.48;;;5.05;;
29906;SDS011;16776;50.958;10.994;2023-03-01T03:57:59;9.32;;;5.35;;
29906;SDS011;16776;50.958;10.994;2023-03-01T04:00:31;9.25;;;4.75;;
29906;SDS011;16776;50.958;10.994;2023-03-01T04:02:59;6.38;;;4.32;;
29906;SDS011;16776;50.958;10.994;2023-03-01T04:05:26;8.32;;;5.10;;
29906;SDS011;16776;50.958;10.994;2023-03-01T04:07:55;9.65;;;5.32;;
29906;SDS011;16776;50.958;10.994;2023-03-01T04:10:27;8.07;;;4.53;;
29906;SDS011;16776;50.958;10.994;2023-03-01T04:12:55;8.20;;;4.70;;
29906;SDS011;16776;50.958;10.994;2023-03-01T04:15:22;10.07;;;5.60;;
29906;SDS011;16776;50.958;10.994;2023-03-01T04:17:50;9.63;;;5.00;;
29906;SDS011;16776;50.958;10.994;2023-03-01T04:20:19;6.70;;;4.22;;
29906;SDS011;16776;50.958;10.994;2023-03-01T04:22:50;7.65;;;4.72;;
29906;SDS011;16776;50.958;10.994;2023-03-01T04:25:19;8.05;;;4.95;;
29906;SDS011;16776;50.958;10.994;2023-03-01T04:27:46;7.75;;;4.43;;
29906;SDS011;16776;50.958;10.994;2023-03-01T04:30:12;9.40;;;5.28;;
29906;SDS011;16776;50.958;10.994;2023-03-01T04:32:39;10.10;;;5.63;;
29906;SDS011;16776;50.958;10.994;2023-03-01T04:35:06;7.85;;;4.95;;
29906;SDS011;16776;50.958;10.994;2023-03-01T04:37:33;9.40;;;5.63;;
29906;SDS011;16776;50.958;10.994;2023-03-01T04:40:01;8.35;;;4.80;;
29906;SDS011;16776;50.958;10.994;2023-03-01T04:42:38;10.25;;;5.05;;
29906;SDS011;16776;50.958;10.994;2023-03-01T04:45:05;13.65;;;5.22;;
29906;SDS011;16776;50.958;10.994;2023-03-01T04:47:38;8.40;;;5.10;;
29906;SDS011;16776;50.958;10.994;2023-03-01T04:50:05;10.32;;;5.28;;
29906;SDS011;16776;50.958;10.994;2023-03-01T04:52:33;10.75;;;5.70;;
29906;SDS011;16776;50.958;10.994;2023-03-01T04:55:00;10.18;;;5.20;;
29906;SDS011;16776;50.958;10.994;2023-03-01T04:57:28;8.60;;;5.32;;
29906;SDS011;16776;50.958;10.994;2023-03-01T04:59:56;9.15;;;4.70;;
29906;SDS011;16776;50.958;10.994;2023-03-01T05:02:22;10.48;;;5.03;;
29906;SDS011;16776;50.958;10.994;2023-03-01T05:04:49;8.90;;;5.95;;
29906;SDS011;16776;50.958;10.994;2023-03-01T05:07:16;7.53;;;4.57;;
29906;SDS011;16776;50.958;10.994;2023-03-01T05:09:44;9.85;;;4.88;;
29906;SDS011;16776;50.958;10.994;2023-03-01T05:12:11;8.40;;;4.68;;
29906;SDS011;16776;50.958;10.994;2023-03-01T05:14:37;7.63;;;4.72;;
29906;SDS011;16776;50.958;10.994;2023-03-01T05:17:06;7.47;;;4.72;;
29906;SDS011;16776;50.958;10.994;2023-03-01T05:19:33;7.85;;;4.55;;
29906;SDS011;16776;50.958;10.994;2023-03-01T05:22:00;7.65;;;4.55;;
29906;SDS011;16776;50.958;10.994;2023-03-01T05:24:30;6.40;;;3.58;;
29906;SDS011;16776;50.958;10.994;2023-03-01T05:26:58;6.63;;;3.63;;
29906;SDS011;16776;50.958;10.994;2023-03-01T05:29:25;8.05;;;4.68;;
29906;SDS011;16776;50.958;10.994;2023-03-01T05:31:53;10.90;;;5.68;;
29906;SDS011;16776;50.958;10.994;2023-03-01T05:34:24;6.57;;;4.30;;
29906;SDS011;16776;50.958;10.994;2023-03-01T05:36:51;7.85;;;3.80;;
29906;SDS011;16776;50.958;10.994;2023-03-01T05:39:18;8.43;;;4.38;;
29906;SDS011;16776;50.958;10.994;2023-03-01T05:41:46;7.05;;;4.30;;
29906;SDS011;16776;50.958;10.994;2023-03-01T05:44:13;6.68;;;4.22;;
29906;SDS011;16776;50.958;10.994;2023-03-01T05:46:39;7.85;;;4.55;;
29906;SDS011;16776;50.958;10.994;2023-03-01T05:49:06;6.68;;;4.20;;
29906;SDS011;16776;50.958;10.994;2023-03-01T05:51:34;7.38;;;4.40;;
29906;SDS011;16776;50.958;10.994;2023-03-01T05:54:04;5.95;;;4.10;;
29906;SDS011;16776;50.958;10.994;2023-03-01T05:56:32;8.80;;;4.25;;
29906;SDS011;16776;50.958;10.994;2023-03-01T05:58:59;10.20;;;4.43;;
29906;SDS011;16776;50.958;10.994;2023-03-01T06:01:26;7.97;;;4.45;;
29906;SDS011;16776;50.958;10.994;2023-03-01T06:03:53;6.28;;;4.45;;
29906;SDS011;16776;50.958;10.994;2023-03-01T06:06:19;7.68;;;3.90;;
29906;SDS011;16776;50.958;10.994;2023-03-01T06:08:47;7.60;;;4.60;;
29906;SDS011;16776;50.958;10.994;2023-03-01T06:11:14;8.88;;;5.25;;
29906;SDS011;16776;50.958;10.994;2023-03-01T06:13:41;7.53;;;4.38;;
29906;SDS011;16776;50.958;10.994;2023-03-01T06:16:08;8.57;;;4.47;;
29906;SDS011;16776;50.958;10.994;2023-03-01T06:18:35;7.05;;;4.60;;
29906;SDS011;16776;50.958;10.994;2023-03-01T06:21:02;8.10;;;4.50;;
29906;SDS011;16776;50.958;10.994;2023-03-01T06:23:30;10.43;;;4.32;;
29906;SDS011;16776;50.958;10.994;2023-03-01T06:25:58;8.02;;;4.53;;
29906;SDS011;16776;50.958;10.994;2023-03-01T06:28:25;7.85;;;4.95;;
29906;SDS011;16776;50.958;10.994;2023-03-01T06:30:51;11.35;;;4.63;;
29906;SDS011;16776;50.958;10.994;2023-03-01T06:33:18;8.57;;;4.65;;
29906;SDS011;16776;50.958;10.994;2023-03-01T06:35:46;7.88;;;4.50;;
29906;SDS011;16776;50.958;10.994;2023-03-01T06:38:13;9.80;;;4.63;;
29906;SDS011;16776;50.958;10.994;2023-03-01T06:40:42;10.23;;;6.18;;
29906;SDS011;16776;50.958;10.994;2023-03-01T06:43:10;9.38;;;4.88;;
29906;SDS011;16776;50.958;10.994;2023-03-01T06:45:37;8.98;;;4.60;;
29906;SDS011;16776;50.958;10.994;2023-03-01T06:48:07;9.27;;;5.15;;
29906;SDS011;16776;50.958;10.994;2023-03-01T06:50:35;8.68;;;4.60;;
29906;SDS011;16776;50.958;10.994;2023-03-01T06:53:02;8.75;;;4.80;;
29906;SDS011;16776;50.958;10.994;2023-03-01T06:55:29;8.13;;;5.22;;
29906;SDS011;16776;50.958;10.994;2023-03-01T06:57:57;7.85;;;4.70;;
29906;SDS011;16776;50.958;10.994;2023-03-01T07:00:26;7.00;;;4.13;;
29906;SDS011;16776;50.958;10.994;2023-03-01T07:02:53;9.25;;;5.35;;
29906;SDS011;16776;50.958;10.994;2023-03-01T07:05:20;8.80;;;4.57;;
29906;SDS011;16776;50.958;10.994;2023-03-01T07:07:47;5.68;;;4.05;;
29906;SDS011;16776;50.958;10.994;2023-03-01T07:10:13;5.93;;;4.15;;
29906;SDS011;16776;50.958;10.994;2023-03-01T07:12:40;8.60;;;5.57;;
29906;SDS011;16776;50.958;10.994;2023-03-01T07:15:07;9.43;;;5.53;;
29906;SDS011;16776;50.958;10.994;2023-03-01T07:17:37;9.45;;;5.72;;
29906;SDS011;16776;50.958;10.994;2023-03-01T07:20:03;6.97;;;4.80;;
29906;SDS011;16776;50.958;10.994;2023-03-01T07:22:31;6.70;;;4.47;;
29906;SDS011;16776;50.958;10.994;2023-03-01T07:24:57;8.82;;;4.93;;
29906;SDS011;16776;50.958;10.994;2023-03-01T07:27:24;7.85;;;4.55;;
29906;SDS011;16776;50.958;10.994;2023-03-01T07:29:50;7.40;;;4.05;;
29906;SDS011;16776;50.958;10.994;2023-03-01T07:32:17;9.30;;;4.85;;
29906;SDS011;16776;50.958;10.994;2023-03-01T07:34:45;8.15;;;4.75;;
29906;SDS011;16776;50.958;10.994;2023-03-01T07:37:12;7.85;;;4.88;;
29906;SDS011;16776;50.958;10.994;2023-03-01T07:39:38;8.02;;;4.60;;
29906;SDS011;16776;50.958;10.994;2023-03-01T07:42:05;10.77;;;5.40;;
29906;SDS011;16776;50.958;10.994;2023-03-01T07:44:31;8.93;;;5.60;;
29906;SDS011;16776;50.958;10.994;2023-03-01T07:46:58;10.23;;;5.80;;
29906;SDS011;16776;50.958;10.994;2023-03-01T07:49:25;9.30;;;5.80;;
29906;SDS011;16776;50.958;10.994;2023-03-01T07:51:53;8.98;;;5.40;;
29906;SDS011;16776;50.958;10.994;2023-03-01T07:54:20;8.45;;;5.68;;
29906;SDS011;16776;50.958;10.994;2023-03-01T07:56:46;7.95;;;5.63;;
29906;SDS011;16776;50.958;10.994;2023-03-01T07:59:13;8.40;;;5.63;;
29906;SDS011;16776;50.958;10.994;2023-03-01T08:01:40;9.25;;;5.63;;
29906;SDS011;16776;50.958;10.994;2023-03-01T08:04:07;9.02;;;5.68;;
29906;SDS011;16776;50.958;10.994;2023-03-01T08:06:36;8.65;;;5.85;;
29906;SDS011;16776;50.958;10.994;2023-03-01T08:09:04;10.02;;;5.60;;
29906;SDS011;16776;50.958;10.994;2023-03-01T08:11:31;10.32;;;5.90;;
29906;SDS011;16776;50.958;10.994;2023-03-01T08:13:58;8.55;;;6.28;;
29906;SDS011;16776;50.958;10.994;2023-03-01T08:16:25;8.20;;;5.40;;
29906;SDS011;16776;50.958;10.994;2023-03-01T08:18:51;9.07;;;5.40;;
29906;SDS011;16776;50.958;10.994;2023-03-01T08:21:20;8.52;;;5.78;;
29906;SDS011;16776;50.958;10.994;2023-03-01T08:23:47;8.57;;;5.63;;
29906;SDS011;16776;50.958;10.994;2023-03-01T08:26:16;8.10;;;5.38;;
29906;SDS011;16776;50.958;10.994;2023-03-01T08:28:44;8.32;;;5.85;;
29906;SDS011;16776;50.958;10.994;2023-03-01T08:31:15;6.78;;;5.15;;
29906;SDS011;16776;50.958;10.994;2023-03-01T08:33:44;11.65;;;7.70;;
29906;SDS011;16776;50.958;10.994;2023-03-01T08:36:15;9.10;;;6.13;;
29906;SDS011;16776;50.958;10.994;2023-03-01T08:38:42;10.77;;;6.22;;
29906;SDS011;16776;50.958;10.994;2023-03-01T08:41:10;8.32;;;5.50;;
29906;SDS011;16776;50.958;10.994;2023-03-01T08:43:38;13.27;;;7.22;;
29906;SDS011;16776;50.958;10.994;2023-03-01T08:46:05;9.38;;;6.13;;
29906;SDS011;16776;50.958;10.994;2023-03-01T08:48:34;7.68;;;5.57;;
29906;SDS011;16776;50.958;10.994;2023-03-01T08:51:07;9.25;;;5.85;;
29906;SDS011;16776;50.958;10.994;2023-03-01T08:53:34;7.63;;;4.97;;
29906;SDS011;16776;50.958;10.994;2023-03-01T08:56:01;6.30;;;4.38;;
29906;SDS011;16776;50.958;10.994;2023-03-01T08:58:28;9.57;;;6.18;;
29906;SDS011;16776;50.958;10.994;2023-03-01T09:00:56;9.27;;;5.90;;
29906;SDS011;16776;50.958;10.994;2023-03-01T09:03:24;10.88;;;7.90;;
29906;SDS011;16776;50.958;10.994;2023-03-01T09:05:51;9.40;;;6.63;;
29906;SDS011;16776;50.958;10.994;2023-03-01T09:08:18;9.07;;;6.75;;
29906;SDS011;16776;50.958;10.994;2023-03-01T09:10:45;7.63;;;4.95;;
29906;SDS011;16776;50.958;10.994;2023-03-01T09:13:14;10.38;;;7.50;;
29906;SDS011;16776;50.958;10.994;2023-03-01T09:15:41;8.30;;;5.65;;
29906;SDS011;16776;50.958;10.994;2023-03-01T09:18:09;7.15;;;5.30;;
29906;SDS011;16776;50.958;10.994;2023-03-01T09:20:35;8.82;;;6.03;;
29906;SDS011;16776;50.958;10.994;2023-03-01T09:23:02;8.82;;;5.90;;
29906;SDS011;16776;50.958;10.994;2023-03-01T09:25:29;9.27;;;5.65;;
29906;SDS011;16776;50.958;10.994;2023-03-01T09:27:55;7.65;;;5.32;;
29906;SDS011;16776;50.958;10.994;2023-03-01T09:30:22;6.68;;;4.85;;
29906;SDS011;16776;50.958;10.994;2023-03-01T09:32:49;7.60;;;5.20;;
29906;SDS011;16776;50.958;10.994;2023-03-01T09:35:17;7.35;;;5.15;;
29906;SDS011;16776;50.958;10.994;2023-03-01T09:37:44;10.45;;;6.13;;
29906;SDS011;16776;50.958;10.994;2023-03-01T09:40:12;9.30;;;5.80;;
29906;SDS011;16776;50.958;10.994;2023-03-01T09:42:45;8.52;;;6.07;;
29906;SDS011;16776;50.958;10.994;2023-03-01T09:45:19;7.53;;;5.30;;
29906;SDS011;16776;50.958;10.994;2023-03-01T09:47:51;8.70;;;6.70;;
29906;SDS011;16776;50.958;10.994;2023-03-01T09:50:21;8.00;;;6.18;;
29906;SDS011;16776;50.958;10.994;2023-03-01T09:52:50;8.63;;;6.22;;
29906;SDS011;16776;50.958;10.994;2023-03-01T09:55:25;9.90;;;6.50;;
29906;SDS011;16776;50.958;10.994;2023-03-01T09:57:58;10.77;;;6.43;;
29906;SDS011;16776;50.958;10.994;2023-03-01T10:00:33;10.32;;;6.18;;
29906;SDS011;16776;50.958;10.994;2023-03-01T10:03:12;10.35;;;6.75;;
29906;SDS011;16776;50.958;10.994;2023-03-01T10:05:59;10.70;;;6.63;;
29906;SDS011;16776;50.958;10.994;2023-03-01T10:08:34;13.50;;;7.95;;
29906;SDS011;16776;50.958;10.994;2023-03-01T10:11:12;12.57;;;6.85;;
29906;SDS011;16776;50.958;10.994;2023-03-01T10:13:45;11.18;;;7.22;;
29906;SDS011;16776;50.958;10.994;2023-03-01T10:16:19;9.50;;;6.35;;
29906;SDS011;16776;50.958;10.994;2023-03-01T10:18:51;9.50;;;5.45;;
29906;SDS011;16776;50.958;10.994;2023-03-01T10:21:23;7.80;;;5.90;;
29906;SDS011;16776;50.958;10.994;2023-03-01T10:23:50;8.48;;;6.72;;
29906;SDS011;16776;50.958;10.994;2023-03-01T10:26:24;8.50;;;5.88;;
29906;SDS011;16776;50.958;10.994;2023-03-01T10:29:01;6.45;;;5.15;;
29906;SDS011;16776;50.958;10.994;2023-03-01T10:31:32;6.20;;;5.15;;
29906;SDS011;16776;50.958;10.994;2023-03-01T10:34:13;6.65;;;5.07;;
29906;SDS011;16776;50.958;10.994;2023-03-01T10:36:43;10.70;;;6.40;;
29906;SDS011;16776;50.958;10.994;2023-03-01T10:39:15;10.93;;;7.20;;
29906;SDS011;16776;50.958;10.994;2023-03-01T10:41:52;10.07;;;6.10;;
29906;SDS011;16776;50.958;10.994;2023-03-01T10:44:35;8.93;;;6.13;;
29906;SDS011;16776;50.958;10.994;2023-03-01T10:47:16;7.38;;;5.35;;
29906;SDS011;16776;50.958;10.994;2023-03-01T10:49:52;6.20;;;4.63;;
29906;SDS011;16776;50.958;10.994;2023-03-01T10:52:22;8.98;;;6.50;;
29906;SDS011;16776;50.958;10.994;2023-03-01T10:54:51;8.52;;;6.40;;
29906;SDS011;16776;50.958;10.994;2023-03-01T10:57:33;9.40;;;6.13;;
29906;SDS011;16776;50.958;10.994;2023-03-01T11:00:16;8.20;;;6.13;;
29906;SDS011;16776;50.958;10.994;2023-03-01T11:02:49;9.63;;;6.78;;
29906;SDS011;16776;50.958;10.994;2023-03-01T11:05:27;7.30;;;5.97;;
29906;SDS011;16776;50.958;10.994;2023-03-01T11:07:57;9.27;;;5.82;;
29906;SDS011;16776;50.958;10.994;2023-03-01T11:10:25;10.20;;;6.32;;
29906;SDS011;16776;50.958;10.994;2023-03-01T11:12:53;10.10;;;6.13;;
29906;SDS011;16776;50.958;10.994;2023-03-01T11:15:31;8.13;;;5.97;;
29906;SDS011;16776;50.958;10.994;2023-03-01T11:17:58;8.95;;;5.80;;
29906;SDS011;16776;50.958;10.994;2023-03-01T11:20:25;8.38;;;5.40;;
29906;SDS011;16776;50.958;10.994;2023-03-01T11:22:58;6.13;;;4.53;;
29906;SDS011;16776;50.958;10.994;2023-03-01T11:25:29;7.57;;;4.85;;
29906;SDS011;16776;50.958;10.994;2023-03-01T11:27:59;8.40;;;5.15;;
29906;SDS011;16776;50.958;10.994;2023-03-01T11:30:30;8.80;;;5.72;;
29906;SDS011;16776;50.958;10.994;2023-03-01T11:33:03;6.75;;;5.50;;
29906;SDS011;16776;50.958;10.994;2023-03-01T11:35:41;10.48;;;5.63;;
29906;SDS011;16776;50.958;10.994;2023-03-01T11:38:16;7.90;;;4.28;;
29906;SDS011;16776;50.958;10.994;2023-03-01T11:40:47;7.05;;;4.68;;
29906;SDS011;16776;50.958;10.994;2023-03-01T11:43:20;9.02;;;5.32;;
29906;SDS011;16776;50.958;10.994;2023-03-01T11:45:58;8.60;;;5.88;;
29906;SDS011;16776;50.958;10.994;2023-03-01T11:48:50;8.00;;;5.70;;
29906;SDS011;16776;50.958;10.994;2023-03-01T11:51:24;8.00;;;5.63;;
29906;SDS011;16776;50.958;10.994;2023-03-01T11:54:20;5.85;;;4.30;;
29906;SDS011;16776;50.958;10.994;2023-03-01T11:56:55;8.68;;;5.22;;
29906;SDS011;16776;50.958;10.994;2023-03-01T12:02:27;9.05;;;5.95;;
29906;SDS011;16776;50.958;10.994;2023-03-01T12:05:21;9.40;;;6.10;;
29906;SDS011;16776;50.958;10.994;2023-03-01T12:08:01;9.50;;;5.57;;
29906;SDS011;16776;50.958;10.994;2023-03-01T12:10:37;9.02;;;6.07;;
29906;SDS011;16776;50.958;10.994;2023-03-01T12:13:18;7.45;;;5.43;;
29906;SDS011;16776;50.958;10.994;2023-03-01T12:16:09;7.25;;;5.32;;
29906;SDS011;16776;50.958;10.994;2023-03-01T12:19:08;9.63;;;5.75;;
29906;SDS011;16776;50.958;10.994;2023-03-01T12:22:00;11.95;;;6.93;;
29906;SDS011;16776;50.958;10.994;2023-03-01T12:24:39;8.52;;;6.03;;
29906;SDS011;16776;50.958;10.994;2023-03-01T12:27:25;9.00;;;6.43;;
29906;SDS011;16776;50.958;10.994;2023-03-01T12:30:04;8.55;;;6.22;;
29906;SDS011;16776;50.958;10.994;2023-03-01T12:32:45;11.75;;;6.82;;
29906;SDS011;16776;50.958;10.994;2023-03-01T12:35:25;9.02;;;6.05;;
29906;SDS011;16776;50.958;10.994;2023-03-01T12:38:04;9.65;;;7.03;;
29906;SDS011;16776;50.958;10.994;2023-03-01T12:43:46;7.63;;;5.05;;
29906;SDS011;16776;50.958;10.994;2023-03-01T12:46:28;6.65;;;4.85;;
29906;SDS011;16776;50.958;10.994;2023-03-01T12:49:07;10.48;;;6.30;;
29906;SDS011;16776;50.958;10.994;2023-03-01T12:51:37;8.98;;;6.05;;
29906;SDS011;16776;50.958;10.994;2023-03-01T12:54:07;9.20;;;6.05;;
29906;SDS011;16776;50.958;10.994;2023-03-01T12:56:41;9.13;;;6.88;;
29906;SDS011;16776;50.958;10.994;2023-03-01T12:59:13;10.25;;;7.18;;
29906;SDS011;16776;50.958;10.994;2023-03-01T13:01:52;12.40;;;6.75;;
29906;SDS011;16776;50.958;10.994;2023-03-01T13:04:28;10.18;;;6.05;;
29906;SDS011;16776;50.958;10.994;2023-03-01T13:07:04;7.10;;;5.22;;
29906;SDS011;16776;50.958;10.994;2023-03-01T13:09:44;11.57;;;6.03;;
29906;SDS011;16776;50.958;10.994;2023-03-01T13:15:27;10.63;;;7.13;;
29906;SDS011;16776;50.958;10.994;2023-03-01T13:17:55;7.80;;;6.10;;
29906;SDS011;16776;50.958;10.994;2023-03-01T13:20:25;8.52;;;6.00;;
29906;SDS011;16776;50.958;10.994;2023-03-01T13:23:01;9.13;;;5.78;;
29906;SDS011;16776;50.958;10.994;2023-03-01T13:25:30;8.55;;;6.63;;
29906;SDS011;16776;50.958;10.994;2023-03-01T13:31:10;9.63;;;5.78;;
29906;SDS011;16776;50.958;10.994;2023-03-01T13:33:57;8.18;;;5.55;;
29906;SDS011;16776;50.958;10.994;2023-03-01T13:39:30;9.05;;;5.90;;
29906;SDS011;16776;50.958;10.994;2023-03-01T13:42:27;11.02;;;7.15;;
29906;SDS011;16776;50.958;10.994;2023-03-01T13:45:04;9.13;;;5.72;;
29906;SDS011;16776;50.958;10.994;2023-03-01T13:47:41;8.88;;;5.95;;
29906;SDS011;16776;50.958;10.994;2023-03-01T13:50:15;7.68;;;5.20;;
29906;SDS011;16776;50.958;10.994;2023-03-01T13:52:46;10.05;;;5.65;;
29906;SDS011;16776;50.958;10.994;2023-03-01T13:55:18;10.05;;;6.43;;
29906;SDS011;16776;50.958;10.994;2023-03-01T13:57:49;12.00;;;8.68;;
29906;SDS011;16776;50.958;10.994;2023-03-01T14:00:27;12.30;;;6.65;;
29906;SDS011;16776;50.958;10.994;2023-03-01T14:03:05;9.93;;;6.40;;
29906;SDS011;16776;50.958;10.994;2023-03-01T14:05:36;10.57;;;6.60;;
29906;SDS011;16776;50.958;10.994;2023-03-01T14:08:04;9.50;;;5.88;;
29906;SDS011;16776;50.958;10.994;2023-03-01T14:10:46;10.98;;;6.55;;
29906;SDS011;16776;50.958;10.994;2023-03-01T14:13:31;8.57;;;6.28;;
29906;SDS011;16776;50.958;10.994;2023-03-01T14:16:12;8.88;;;5.68;;
29906;SDS011;16776;50.958;10.994;2023-03-01T14:18:54;9.95;;;6.13;;
29906;SDS011;16776;50.958;10.994;2023-03-01T14:21:29;12.43;;;7.50;;
29906;SDS011;16776;50.958;10.994;2023-03-01T14:23:58;11.23;;;7.30;;
29906;SDS011;16776;50.958;10.994;2023-03-01T14:26:26;12.85;;;8.38;;
29906;SDS011;16776;50.958;10.994;2023-03-01T14:28:53;11.02;;;7.30;;
29906;SDS011;16776;50.958;10.994;2023-03-01T14:34:16;10.00;;;7.38;;
29906;SDS011;16776;50.958;10.994;2023-03-01T14:36:45;11.68;;;7.40;;
29906;SDS011;16776;50.958;10.994;2023-03-01T14:39:16;12.35;;;6.85;;
29906;SDS011;16776;50.958;10.994;2023-03-01T14:41:43;12.65;;;8.88;;
29906;SDS011;16776;50.958;10.994;2023-03-01T14:44:12;12.13;;;8.25;;
29906;SDS011;16776;50.958;10.994;2023-03-01T14:46:43;15.48;;;9.02;;
29906;SDS011;16776;50.958;10.994;2023-03-01T14:49:11;11.65;;;7.80;;
29906;SDS011;16776;50.958;10.994;2023-03-01T14:51:42;15.45;;;8.73;;
29906;SDS011;16776;50.958;10.994;2023-03-01T14:54:20;13.15;;;8.43;;
29906;SDS011;16776;50.958;10.994;2023-03-01T14:56:49;10.07;;;7.25;;
29906;SDS011;16776;50.958;10.994;2023-03-01T14:59:18;12.48;;;8.32;;
29906;SDS011;16776;50.958;10.994;2023-03-01T15:01:47;14.73;;;9.10;;
29906;SDS011;16776;50.958;10.994;2023-03-01T15:04:16;10.63;;;7.13;;
29906;SDS011;16776;50.958;10.994;2023-03-01T15:06:44;9.85;;;6.82;;
29906;SDS011;16776;50.958;10.994;2023-03-01T15:09:14;9.77;;;6.22;;